Melrose, Iowa
Current Conditions -  °F | °C
As of 2:15 PM on Sunday 25 Jan 2015 (Local Time) from KCNC Reporting Station
Overcast Overcast  
Wind Chill: 23°   Ceiling: 700
Heat Index: 32°   Visibility: 10mi
Dew Point: 30°   Wind: 13mph
Humidity: 93%   Direction: 20°NNE
Pressure: 29.9"   Gusts: 21mph
Location:  40.98°N, 93.05°W
Report Text: KCNC 252015Z AUTO 02011G18KT 10SM OVC007 M00/M01 A2990 RMK AO2
Loading
Personal Weather Stations






























Interactive Weather Map New forecast layout! Learn more

10-Day Weather Forecast

Advertisements
Track Severe Weather on mobile